createdAt,value
2019-05-22T00:02:36.898Z,26.07
2019-05-22T00:05:13.749Z,25.27
2019-05-22T00:07:43.970Z,24.90
2019-05-22T00:10:18.856Z,22.22
2019-05-22T00:12:48.452Z,21.05
2019-05-22T00:15:17.979Z,24.05
2019-05-22T00:17:48.497Z,24.50
2019-05-22T00:20:19.534Z,22.65
2019-05-22T00:22:50.678Z,23.50
2019-05-22T00:25:20.210Z,23.12
2019-05-22T00:27:49.212Z,24.43
2019-05-22T00:30:19.743Z,23.32
2019-05-22T00:32:49.757Z,21.00
2019-05-22T00:35:20.808Z,22.00
2019-05-22T00:37:50.184Z,23.80
2019-05-22T00:40:19.827Z,22.13
2019-05-22T00:43:03.247Z,22.05
2019-05-22T00:45:23.880Z,21.48
2019-05-22T00:47:52.433Z,20.85
2019-05-22T00:50:27.737Z,21.35
2019-05-22T00:53:08.963Z,21.87
2019-05-22T00:55:41.191Z,21.93
2019-05-22T00:58:12.937Z,22.17
2019-05-22T01:01:00.102Z,24.02
2019-05-22T01:03:31.439Z,23.87
2019-05-22T01:06:00.670Z,23.35
2019-05-22T01:08:30.486Z,24.18
2019-05-22T01:11:00.311Z,25.43
2019-05-22T01:13:34.528Z,24.95
2019-05-22T01:16:06.578Z,24.63
2019-05-22T01:18:37.614Z,23.87
2019-05-22T01:21:07.278Z,23.18
2019-05-22T01:23:38.428Z,24.67
2019-05-22T01:26:08.629Z,22.65
2019-05-22T01:28:38.072Z,21.05
2019-05-22T01:31:12.931Z,22.10
2019-05-22T01:33:46.813Z,21.27
2019-05-22T01:36:32.742Z,19.55
2019-05-22T01:39:15.707Z,20.77
2019-05-22T01:41:49.545Z,20.37
2019-05-22T01:44:20.368Z,21.60
2019-05-22T01:46:49.932Z,20.20
2019-05-22T01:49:21.569Z,22.40
2019-05-22T01:51:50.211Z,21.60
2019-05-22T01:54:18.727Z,19.35
2019-05-22T01:56:50.272Z,20.27
2019-05-22T01:59:19.933Z,18.70
2019-05-22T02:01:49.071Z,18.95
2019-05-22T02:04:18.593Z,14.83
2019-05-22T02:06:47.508Z,16.90
2019-05-22T02:09:26.404Z,15.78
2019-05-22T02:12:09.340Z,15.40
2019-05-22T02:14:43.848Z,14.63
2019-05-22T02:17:14.996Z,11.25
2019-05-22T02:19:43.737Z,12.07
2019-05-22T02:22:14.560Z,12.43
2019-05-22T02:24:45.951Z,11.08
2019-05-22T02:27:16.206Z,11.90
2019-05-22T02:29:46.339Z,10.72
2019-05-22T02:32:16.764Z,10.58
2019-05-22T02:34:45.772Z,10.48
2019-05-22T02:37:15.102Z,10.35
2019-05-22T02:39:43.907Z,9.85
2019-05-22T02:42:18.365Z,10.38
2019-05-22T02:44:47.983Z,10.50
2019-05-22T02:47:20.831Z,10.55
2019-05-22T02:49:49.442Z,10.55
2019-05-22T02:52:19.596Z,9.18
2019-05-22T02:54:49.190Z,9.68
2019-05-22T02:57:18.534Z,10.63
2019-05-22T02:59:47.755Z,9.05
2019-05-22T03:02:17.370Z,10.28
2019-05-22T03:04:53.969Z,9.90
2019-05-22T03:07:23.961Z,9.85
2019-05-22T03:09:53.240Z,10.03
2019-05-22T03:12:23.962Z,9.80
2019-05-22T03:14:53.770Z,10.38
2019-05-22T03:17:27.596Z,10.43
2019-05-22T03:19:57.625Z,10.18
2019-05-22T03:22:33.861Z,9.98
2019-05-22T03:25:07.952Z,9.50
2019-05-22T03:27:47.170Z,9.93
2019-05-22T03:30:23.798Z,10.28
2019-05-22T03:32:53.688Z,10.60
2019-05-22T03:35:25.445Z,10.55
2019-05-22T03:37:56.210Z,10.13
2019-05-22T03:40:26.224Z,10.88
2019-05-22T03:42:56.581Z,11.18
2019-05-22T03:45:25.301Z,10.75
2019-05-22T03:47:56.205Z,11.10
2019-05-22T03:50:25.645Z,11.28
2019-05-22T03:52:57.298Z,11.30
2019-05-22T03:55:26.686Z,12.95
2019-05-22T03:57:55.673Z,12.50
2019-05-22T04:00:26.489Z,14.00
2019-05-22T04:02:56.054Z,13.13
2019-05-22T04:05:25.601Z,14.10
2019-05-22T04:07:56.374Z,14.55
2019-05-22T04:10:28.322Z,12.70
2019-05-22T04:12:57.230Z,13.28
2019-05-22T04:15:27.064Z,14.23
2019-05-22T04:18:04.251Z,12.58
2019-05-22T04:20:32.983Z,14.20
2019-05-22T04:23:01.508Z,13.95
2019-05-22T04:25:30.732Z,14.30
2019-05-22T04:27:59.652Z,13.83
2019-05-22T04:30:28.970Z,13.22
2019-05-22T04:32:59.680Z,13.22
2019-05-22T04:35:28.712Z,13.45
2019-05-22T04:37:58.037Z,13.98
2019-05-22T04:40:48.417Z,12.10
2019-05-22T04:43:20.893Z,12.47
2019-05-22T04:45:50.025Z,12.73
2019-05-22T04:48:19.408Z,12.75
2019-05-22T04:50:49.554Z,11.33
2019-05-22T04:53:18.844Z,12.40
2019-05-22T04:55:47.794Z,12.28
2019-05-22T04:58:21.289Z,11.78
2019-05-22T05:00:49.926Z,12.10
2019-05-22T05:03:20.032Z,12.47
2019-05-22T05:05:51.265Z,12.70
2019-05-22T05:08:19.901Z,11.93
2019-05-22T05:10:51.787Z,11.30
2019-05-22T05:13:20.738Z,12.07
2019-05-22T05:15:49.356Z,12.33
2019-05-22T05:18:17.983Z,9.95
2019-05-22T05:20:46.909Z,11.43
2019-05-22T05:23:15.726Z,11.12
2019-05-22T05:25:44.550Z,10.05
2019-05-22T05:28:15.289Z,11.57
2019-05-22T05:30:44.608Z,9.98
2019-05-22T05:33:13.639Z,10.60
2019-05-22T05:35:43.065Z,10.18
2019-05-22T05:38:13.284Z,9.35
2019-05-22T05:40:42.682Z,8.98
2019-05-22T05:43:14.793Z,9.78
2019-05-22T05:45:45.891Z,9.13
2019-05-22T05:48:17.017Z,8.08
2019-05-22T05:51:35.276Z,8.50
2019-05-22T05:54:14.812Z,7.47
2019-05-22T05:56:45.576Z,8.45
2019-05-22T05:59:14.758Z,7.70
2019-05-22T06:01:50.295Z,8.00
2019-05-22T06:04:34.786Z,7.22
2019-05-22T06:07:23.760Z,6.95
2019-05-22T06:10:23.218Z,7.45
2019-05-22T06:12:51.972Z,6.45
2019-05-22T06:15:23.857Z,7.25
2019-05-22T06:18:40.655Z,6.33
2019-05-22T06:21:10.284Z,6.40
2019-05-22T06:24:34.742Z,7.60
2019-05-22T06:27:08.254Z,7.60
2019-05-22T06:29:46.690Z,6.05
2019-05-22T06:32:54.102Z,5.92
2019-05-22T06:35:26.074Z,5.47
2019-05-22T06:38:16.297Z,5.35
2019-05-22T06:40:45.115Z,6.30
2019-05-22T06:43:59.180Z,5.92
2019-05-22T06:46:44.871Z,5.80
2019-05-22T06:49:55.966Z,5.97
2019-05-22T06:52:25.009Z,5.75
2019-05-22T06:54:54.774Z,6.30
2019-05-22T06:57:32.672Z,5.67
2019-05-22T07:00:14.313Z,5.75
2019-05-22T07:02:39.612Z,5.05
2019-05-22T07:05:09.149Z,5.85
2019-05-22T07:07:38.088Z,6.45
2019-05-22T07:10:11.876Z,5.00
2019-05-22T07:12:42.654Z,5.60
2019-05-22T07:15:33.430Z,5.20
2019-05-22T07:18:03.472Z,6.17
2019-05-22T07:20:34.846Z,5.45
2019-05-22T07:23:06.128Z,5.40
2019-05-22T07:25:35.755Z,5.62
2019-05-22T07:28:05.345Z,6.03
2019-05-22T07:30:34.457Z,5.87
2019-05-22T07:33:03.913Z,6.03
2019-05-22T07:35:49.749Z,5.78
2019-05-22T07:38:03.500Z,5.17
2019-05-22T07:40:32.924Z,4.75
2019-05-22T07:43:01.549Z,5.53
2019-05-22T07:45:31.769Z,5.58
2019-05-22T07:48:00.775Z,5.80
2019-05-22T07:50:33.006Z,5.90
2019-05-22T07:53:03.289Z,6.05
2019-05-22T07:55:32.599Z,6.87
2019-05-22T07:58:08.663Z,6.50
2019-05-22T08:00:49.336Z,6.47
2019-05-22T08:03:18.998Z,4.72
2019-05-22T08:05:52.999Z,5.53
2019-05-22T08:10:53.641Z,5.47
2019-05-22T08:13:23.117Z,5.53
2019-05-22T08:15:52.012Z,5.47
2019-05-22T08:18:21.165Z,6.10
2019-05-22T08:20:49.886Z,5.28
2019-05-22T08:23:19.025Z,6.10
2019-05-22T08:25:47.863Z,5.58
2019-05-22T08:28:18.370Z,5.40
2019-05-22T08:30:48.465Z,4.75
2019-05-22T08:33:18.505Z,5.90
2019-05-22T08:35:47.552Z,5.33
2019-05-22T08:38:16.681Z,5.45
2019-05-22T08:40:46.734Z,5.62
2019-05-22T08:43:16.571Z,5.60
2019-05-22T08:45:45.990Z,6.00
2019-05-22T08:48:16.040Z,6.12
2019-05-22T08:50:45.828Z,5.35
2019-05-22T08:53:15.852Z,5.50
2019-05-22T08:55:44.991Z,5.67
2019-05-22T08:58:14.915Z,5.65
2019-05-22T09:00:44.406Z,5.00
2019-05-22T09:03:13.945Z,5.08
2019-05-22T09:05:43.553Z,4.90
2019-05-22T09:08:12.287Z,4.83
2019-05-22T09:10:41.504Z,4.97
2019-05-22T09:13:10.119Z,4.17
2019-05-22T09:15:39.560Z,4.67
2019-05-22T09:18:08.613Z,4.67
2019-05-22T09:20:48.873Z,4.28
2019-05-22T09:23:11.217Z,4.45
2019-05-22T09:25:40.273Z,4.03
2019-05-22T09:28:08.921Z,4.83
2019-05-22T09:30:37.539Z,4.17
2019-05-22T09:33:08.084Z,4.50
2019-05-22T09:35:36.820Z,4.95
2019-05-22T09:38:05.560Z,5.00
2019-05-22T09:40:34.590Z,4.35
2019-05-22T09:43:04.513Z,4.90
2019-05-22T09:45:35.266Z,4.33
2019-05-22T09:48:04.818Z,5.30
2019-05-22T09:50:34.183Z,5.53
2019-05-22T09:53:05.644Z,5.03
2019-05-22T09:55:35.428Z,5.50
2019-05-22T09:58:05.047Z,4.85
2019-05-22T10:00:33.775Z,6.78
2019-05-22T10:03:03.345Z,5.45
2019-05-22T10:05:32.195Z,5.42
2019-05-22T10:08:01.894Z,4.78
2019-05-22T10:10:31.049Z,4.60
2019-05-22T10:12:59.665Z,4.80
2019-05-22T10:15:29.325Z,5.35
2019-05-22T10:17:58.433Z,4.10
2019-05-22T10:20:27.053Z,4.70
2019-05-22T10:22:56.499Z,6.50
2019-05-22T10:25:25.616Z,5.87
2019-05-22T10:27:54.237Z,5.83
2019-05-22T10:30:23.960Z,6.30
2019-05-22T10:32:52.794Z,5.42
2019-05-22T10:35:24.608Z,5.10
2019-05-22T10:37:54.466Z,6.03
2019-05-22T10:40:23.592Z,4.33
2019-05-22T10:42:52.526Z,6.05
2019-05-22T10:45:21.306Z,5.90
2019-05-22T10:47:50.412Z,5.80
2019-05-22T10:50:19.247Z,5.58
2019-05-22T10:52:53.711Z,5.60
2019-05-22T10:55:19.852Z,5.15
2019-05-22T10:57:48.511Z,7.00
2019-05-22T11:00:18.423Z,4.90
2019-05-22T11:02:48.301Z,4.72
2019-05-22T11:05:19.103Z,5.30
2019-05-22T11:07:48.432Z,4.90
2019-05-22T11:10:19.277Z,4.60
2019-05-22T11:12:48.298Z,4.95
2019-05-22T11:15:17.035Z,4.58
2019-05-22T11:17:45.942Z,4.67
2019-05-22T11:20:15.972Z,4.17
2019-05-22T11:22:44.644Z,4.70
2019-05-22T11:25:14.050Z,4.83
2019-05-22T11:27:43.137Z,4.97
2019-05-22T11:30:14.283Z,5.35
2019-05-22T11:32:43.407Z,4.95
2019-05-22T11:35:13.310Z,5.72
2019-05-22T11:37:42.049Z,5.30
2019-05-22T11:40:11.451Z,4.97
2019-05-22T11:42:40.849Z,4.85
2019-05-22T11:45:11.383Z,5.15
2019-05-22T11:47:40.203Z,5.35
2019-05-22T11:50:10.247Z,4.45
2019-05-22T11:52:40.015Z,3.72
2019-05-22T11:55:10.252Z,4.35
2019-05-22T11:57:40.357Z,4.45
2019-05-22T12:00:10.625Z,4.85
2019-05-22T12:02:39.571Z,4.20
2019-05-22T12:05:10.792Z,3.60
2019-05-22T12:07:40.322Z,4.28
2019-05-22T12:10:09.965Z,4.58
2019-05-22T12:12:39.790Z,4.50
2019-05-22T12:15:10.949Z,4.45
2019-05-22T12:17:39.918Z,4.10
2019-05-22T12:20:09.540Z,5.00
2019-05-22T12:22:38.408Z,4.47
2019-05-22T12:25:09.367Z,3.77
2019-05-22T12:27:38.513Z,4.95
2019-05-22T12:30:09.236Z,4.12
2019-05-22T12:32:38.766Z,4.00
2019-05-22T12:35:07.755Z,3.92
2019-05-22T12:37:36.574Z,4.42
2019-05-22T12:40:05.738Z,4.95
2019-05-22T12:42:35.049Z,4.37
2019-05-22T12:45:06.446Z,5.35
2019-05-22T12:47:35.989Z,5.72
2019-05-22T12:50:05.356Z,4.92
2019-05-22T12:52:34.360Z,5.12
2019-05-22T12:55:03.834Z,5.20
2019-05-22T12:57:32.981Z,5.35
2019-05-22T13:00:03.007Z,5.40
2019-05-22T13:02:32.925Z,6.30
2019-05-22T13:05:01.957Z,5.55
2019-05-22T13:07:30.945Z,5.20
2019-05-22T13:09:59.679Z,5.00
2019-05-22T13:12:29.397Z,6.20
2019-05-22T13:15:09.139Z,5.37
2019-05-22T13:17:31.669Z,9.50
2019-05-22T13:20:01.984Z,5.83
2019-05-22T13:22:32.538Z,5.03
2019-05-22T13:25:02.087Z,6.08
2019-05-22T13:27:32.912Z,5.75
2019-05-22T13:30:03.544Z,5.90
2019-05-22T13:32:34.636Z,5.78
2019-05-22T13:35:04.080Z,6.08
2019-05-22T13:37:32.780Z,4.87
2019-05-22T13:40:01.849Z,6.00
2019-05-22T13:42:30.560Z,5.22
2019-05-22T13:44:59.368Z,6.35
2019-05-22T13:47:28.045Z,6.30
2019-05-22T13:49:56.791Z,5.53
2019-05-22T13:52:25.505Z,5.60
2019-05-22T13:54:55.745Z,4.75
2019-05-22T13:57:25.306Z,6.15
2019-05-22T13:59:54.019Z,5.30
2019-05-22T14:02:26.956Z,5.40
2019-05-22T14:04:53.923Z,5.15
2019-05-22T14:07:22.668Z,5.40
2019-05-22T14:09:52.186Z,5.20
2019-05-22T14:12:20.937Z,5.42
2019-05-22T14:14:50.364Z,5.35
2019-05-22T14:17:18.957Z,6.72
2019-05-22T14:19:47.824Z,7.33
2019-05-22T14:22:16.545Z,6.08
2019-05-22T14:24:45.259Z,5.78
2019-05-22T14:27:13.997Z,8.30
2019-05-22T14:29:42.813Z,6.75
2019-05-22T14:32:12.622Z,6.00
2019-05-22T14:34:41.375Z,5.37
2019-05-22T14:37:12.068Z,6.85
2019-05-22T14:39:41.177Z,5.80
2019-05-22T14:42:11.218Z,6.05
2019-05-22T14:44:39.932Z,5.53
2019-05-22T14:47:14.568Z,6.60
2019-05-22T14:49:39.692Z,6.22
2019-05-22T14:52:09.014Z,5.83
2019-05-22T14:54:37.708Z,5.67
2019-05-22T14:57:07.223Z,5.37
2019-05-22T14:59:36.344Z,5.08
2019-05-22T15:02:05.450Z,5.22
2019-05-22T15:04:34.405Z,5.47
2019-05-22T15:07:03.712Z,5.72
2019-05-22T15:09:32.520Z,5.45
2019-05-22T15:12:01.521Z,5.70
2019-05-22T15:14:30.128Z,5.70
2019-05-22T15:16:58.844Z,5.47
2019-05-22T15:19:27.491Z,6.20
2019-05-22T15:21:56.234Z,5.12
2019-05-22T15:24:25.085Z,5.12
2019-05-22T15:26:54.872Z,5.85
2019-05-22T15:29:23.788Z,5.58
2019-05-22T15:31:53.307Z,5.15
2019-05-22T15:34:23.339Z,4.78
2019-05-22T15:36:52.036Z,5.17
2019-05-22T15:39:22.855Z,5.25
2019-05-22T15:41:52.014Z,4.40
2019-05-22T15:44:21.748Z,4.60
2019-05-22T15:46:51.152Z,5.55
2019-05-22T15:49:20.408Z,4.47
2019-05-22T15:51:49.531Z,5.17
2019-05-22T15:54:18.458Z,5.17
2019-05-22T15:56:47.573Z,5.00
2019-05-22T15:59:16.396Z,4.70
2019-05-22T16:01:45.519Z,4.40
2019-05-22T16:04:15.851Z,4.78
2019-05-22T16:06:45.459Z,4.50
2019-05-22T16:09:16.731Z,4.72
2019-05-22T16:11:50.178Z,4.90
2019-05-22T16:14:19.192Z,4.62
2019-05-22T16:16:50.210Z,5.05
2019-05-22T16:19:22.608Z,4.90
2019-05-22T16:21:54.964Z,5.53
2019-05-22T16:24:24.102Z,5.08
2019-05-22T16:26:52.747Z,4.95
2019-05-22T16:29:23.273Z,5.28
2019-05-22T16:31:54.798Z,4.85
2019-05-22T16:34:23.614Z,5.25
2019-05-22T16:36:53.608Z,5.12
2019-05-22T16:39:23.119Z,5.72
2019-05-22T16:41:52.674Z,5.53
2019-05-22T16:44:21.386Z,5.15
2019-05-22T16:46:50.622Z,4.67
2019-05-22T16:49:19.952Z,4.85
2019-05-22T16:51:49.369Z,5.62
2019-05-22T16:54:20.732Z,6.20
2019-05-22T16:56:48.945Z,6.00
2019-05-22T16:59:18.178Z,6.33
2019-05-22T17:01:58.879Z,5.70
2019-05-22T17:04:17.969Z,6.08
2019-05-22T17:06:46.888Z,5.40
2019-05-22T17:09:18.270Z,6.20
2019-05-22T17:11:47.320Z,5.70
2019-05-22T17:14:18.955Z,6.37
2019-05-22T17:16:48.497Z,6.55
2019-05-22T17:19:26.667Z,6.00
2019-05-22T17:21:48.286Z,9.70
2019-05-22T17:24:19.202Z,6.60
2019-05-22T17:26:50.951Z,6.42
2019-05-22T17:29:19.872Z,6.22
2019-05-22T17:31:48.981Z,6.22
2019-05-22T17:34:37.033Z,6.22
2019-05-22T17:37:12.997Z,6.10
2019-05-22T17:39:45.880Z,7.50
2019-05-22T17:42:16.630Z,6.75
2019-05-22T17:44:47.000Z,8.70
2019-05-22T17:47:18.562Z,6.62
2019-05-22T17:49:47.886Z,6.62
2019-05-22T17:52:18.002Z,7.50
2019-05-22T17:54:48.658Z,7.90
2019-05-22T17:57:18.842Z,7.20
2019-05-22T17:59:47.553Z,7.70
2019-05-22T18:02:18.925Z,8.43
2019-05-22T18:04:48.329Z,7.72
2019-05-22T18:07:17.049Z,7.08
2019-05-22T18:09:46.174Z,6.55
2019-05-22T18:12:15.228Z,8.05
2019-05-22T18:14:45.928Z,9.23
2019-05-22T18:17:15.147Z,8.50
2019-05-22T18:19:44.284Z,8.88
2019-05-22T18:22:13.812Z,8.38
2019-05-22T18:24:42.378Z,8.50
2019-05-22T18:27:10.982Z,7.72
2019-05-22T18:29:39.601Z,7.28
2019-05-22T18:32:09.843Z,7.85
2019-05-22T18:34:38.460Z,7.10
2019-05-22T18:37:07.203Z,9.05
2019-05-22T18:39:36.335Z,7.30
2019-05-22T18:42:05.290Z,7.78
2019-05-22T18:44:33.797Z,8.18
2019-05-22T18:47:03.439Z,8.03
2019-05-22T18:49:31.952Z,7.70
2019-05-22T18:52:00.918Z,7.78
2019-05-22T18:54:29.627Z,7.90
2019-05-22T18:56:58.199Z,8.98
2019-05-22T18:59:26.934Z,7.55
2019-05-22T19:01:55.679Z,7.50
2019-05-22T19:04:24.472Z,8.28
2019-05-22T19:06:55.880Z,8.20
2019-05-22T19:09:24.240Z,7.35
2019-05-22T19:11:53.156Z,6.65
2019-05-22T19:14:22.360Z,7.17
2019-05-22T19:16:51.180Z,9.25
2019-05-22T19:19:20.016Z,8.93
2019-05-22T19:21:48.824Z,7.67
2019-05-22T19:24:18.230Z,8.25
2019-05-22T19:26:47.440Z,7.85
2019-05-22T19:29:16.356Z,6.70
2019-05-22T19:31:44.908Z,6.50
2019-05-22T19:34:13.526Z,6.85
2019-05-22T19:36:42.461Z,7.60
2019-05-22T19:39:11.404Z,7.90
2019-05-22T19:41:40.428Z,7.70
2019-05-22T19:44:10.145Z,7.28
2019-05-22T19:46:39.282Z,7.80
2019-05-22T19:49:08.513Z,7.55
2019-05-22T19:51:37.450Z,7.03
2019-05-22T19:54:07.028Z,7.28
2019-05-22T19:56:35.936Z,7.80
2019-05-22T19:59:04.991Z,8.20
2019-05-22T20:01:33.720Z,8.73
2019-05-22T20:04:02.448Z,8.15
2019-05-22T20:06:31.660Z,8.23
2019-05-22T20:09:00.202Z,8.23
2019-05-22T20:11:29.122Z,8.35
2019-05-22T20:13:58.446Z,7.90
2019-05-22T20:16:27.073Z,8.55
2019-05-22T20:18:56.190Z,8.85
2019-05-22T20:21:25.683Z,8.30
2019-05-22T20:23:54.232Z,7.80
2019-05-22T20:26:22.939Z,7.65
2019-05-22T20:28:52.372Z,8.45
2019-05-22T20:31:21.155Z,8.15
2019-05-22T20:33:49.787Z,8.73
2019-05-22T20:36:18.798Z,9.28
2019-05-22T20:38:47.443Z,9.98
2019-05-22T20:41:17.166Z,10.23
2019-05-22T20:43:46.494Z,10.50
2019-05-22T20:46:17.886Z,11.40
2019-05-22T20:48:47.700Z,11.30
2019-05-22T20:51:17.531Z,11.60
2019-05-22T20:53:53.940Z,12.10
2019-05-22T20:56:20.212Z,11.48
2019-05-22T20:58:49.333Z,12.60
2019-05-22T21:01:18.382Z,13.08
2019-05-22T21:03:47.222Z,13.90
2019-05-22T21:06:18.840Z,13.98
2019-05-22T21:08:49.287Z,13.85
2019-05-22T21:11:21.719Z,14.95
2019-05-22T21:13:51.748Z,14.75
2019-05-22T21:16:21.162Z,13.98
2019-05-22T21:18:51.730Z,14.68
2019-05-22T21:21:21.570Z,15.15
2019-05-22T21:23:50.602Z,15.30
2019-05-22T21:26:19.821Z,16.12
2019-05-22T21:28:48.884Z,16.48
2019-05-22T21:31:19.396Z,15.98
2019-05-22T21:33:49.516Z,15.25
2019-05-22T21:36:19.330Z,16.20
2019-05-22T21:38:48.351Z,16.62
2019-05-22T21:41:19.895Z,16.00
2019-05-22T21:43:49.014Z,15.88
2019-05-22T21:46:18.126Z,17.17
2019-05-22T21:48:49.963Z,15.98
2019-05-22T21:51:18.599Z,16.87
2019-05-22T21:53:47.443Z,15.53
2019-05-22T21:56:16.634Z,16.50
2019-05-22T21:58:45.890Z,17.02
2019-05-22T22:01:26.592Z,16.32
2019-05-22T22:04:00.475Z,15.98
2019-05-22T22:06:33.202Z,15.98
2019-05-22T22:09:00.371Z,17.62
2019-05-22T22:11:29.601Z,16.40
2019-05-22T22:13:58.727Z,16.45
2019-05-22T22:16:27.259Z,16.80
2019-05-22T22:18:56.490Z,17.12
2019-05-22T22:21:25.603Z,22.00
2019-05-22T22:23:54.638Z,18.65
2019-05-22T22:26:25.889Z,17.25
2019-05-22T22:28:54.501Z,16.90
2019-05-22T22:31:25.574Z,17.05
2019-05-22T22:34:02.182Z,18.45
2019-05-22T22:36:31.632Z,18.42
2019-05-22T22:39:00.269Z,18.02
2019-05-22T22:41:29.679Z,17.32
2019-05-22T22:43:59.074Z,18.37
2019-05-22T22:46:38.359Z,18.48
2019-05-22T22:49:12.283Z,17.15
2019-05-22T22:51:41.796Z,16.82
2019-05-22T22:54:12.252Z,17.55
2019-05-22T22:56:41.305Z,16.62
2019-05-22T22:59:11.100Z,17.27
2019-05-22T23:01:41.329Z,17.37
2019-05-22T23:04:11.601Z,17.95
2019-05-22T23:06:40.634Z,17.82
2019-05-22T23:09:11.825Z,17.07
2019-05-22T23:11:42.841Z,18.32
2019-05-22T23:14:12.211Z,17.70
2019-05-22T23:16:41.123Z,18.27
2019-05-22T23:19:33.533Z,18.30
2019-05-22T23:22:04.853Z,17.30
2019-05-22T23:24:34.991Z,18.85
2019-05-22T23:27:05.872Z,17.50
2019-05-22T23:29:35.096Z,17.55
2019-05-22T23:32:05.944Z,17.52
2019-05-22T23:34:35.459Z,17.67
2019-05-22T23:37:06.184Z,17.98
2019-05-22T23:39:35.495Z,18.45
2019-05-22T23:42:11.958Z,17.05
2019-05-22T23:44:40.888Z,17.55
2019-05-22T23:47:10.352Z,16.62
2019-05-22T23:49:40.573Z,16.35
2019-05-22T23:52:11.684Z,15.80
2019-05-22T23:54:40.715Z,15.78
2019-05-22T23:57:12.332Z,16.62
2019-05-22T23:59:43.816Z,17.15
